Time;durP1;ratioP1;P1;durP2;ratioP2;P2;SDS_P1;SDS_P2;PMS_P1;PMS_P2;Temp;Humidity;BMP_temperature;BMP_pressure;BME280_temperature;BME280_humidity;BME280_pressure;Samples;Min_cycle;Max_cycle;Signal;HPM_P1;HPM_P2
2022/03/23 00:01:25;;;;;;;18.60;12.83;;;;;;;10.35;27.67;101917.84;10354909;28;20602;-87
2022/03/23 00:06:29;;;;;;;17.57;12.50;;;;;;;10.20;27.91;101921.75;10354757;28;20307;-86
2022/03/23 00:11:32;;;;;;;20.87;12.43;;;;;;;10.43;27.76;101919.94;10355131;28;20578;-86
2022/03/23 00:16:36;;;;;;;19.83;12.83;;;;;;;10.09;28.11;101915.38;10353872;28;20279;-87
2022/03/23 00:21:38;;;;;;;20.33;12.67;;;;;;;10.40;27.37;101915.75;10354897;28;20229;-86
2022/03/23 00:26:40;;;;;;;19.60;13.50;;;;;;;10.34;27.76;101910.50;10338599;28;20271;-87
2022/03/23 00:31:43;;;;;;;18.57;13.47;;;;;;;10.46;27.64;101910.88;10353900;28;20208;-87
2022/03/23 00:36:45;;;;;;;19.80;13.23;;;;;;;10.04;28.43;101918.31;10353514;28;20413;-86
2022/03/23 00:41:50;;;;;;;19.33;12.77;;;;;;;9.72;28.74;101910.59;10337613;28;20205;-86
2022/03/23 00:46:52;;;;;;;17.97;11.83;;;;;;;9.87;28.40;101915.19;10352340;28;20338;-86
2022/03/23 00:51:56;;;;;;;17.20;12.53;;;;;;;9.79;28.72;101917.88;10342352;28;20268;-86
2022/03/23 00:56:58;;;;;;;15.43;11.50;;;;;;;9.14;29.68;101921.22;10352666;28;20260;-87
2022/03/23 01:02:01;;;;;;;17.47;11.50;;;;;;;9.41;29.29;101920.63;10353556;28;20236;-86
2022/03/23 01:07:04;;;;;;;17.53;11.53;;;;;;;9.30;29.38;101914.28;10337253;28;20323;-87
2022/03/23 01:12:06;;;;;;;15.77;11.53;;;;;;;9.58;28.60;101915.28;10336577;28;20275;-87
2022/03/23 01:17:09;;;;;;;18.37;12.63;;;;;;;9.07;29.67;101914.25;10336718;28;20506;-86
2022/03/23 01:22:12;;;;;;;18.37;12.03;;;;;;;8.99;29.73;101915.75;10320637;28;20486;-86
2022/03/23 01:27:16;;;;;;;19.60;12.70;;;;;;;9.38;29.04;101905.13;10337224;28;20307;-86
2022/03/23 01:32:18;;;;;;;19.07;12.67;;;;;;;9.86;28.32;101907.84;10336678;28;21002;-86
2022/03/23 01:37:21;;;;;;;20.43;13.50;;;;;;;9.54;28.81;101907.75;10352601;28;20181;-86
2022/03/23 01:42:29;;;;;;;19.60;13.03;;;;;;;9.54;28.82;101911.41;10353222;28;20189;-86
2022/03/23 01:47:32;;;;;;;18.97;13.40;;;;;;;9.68;28.72;101903.06;10335356;28;20236;-86
2022/03/23 01:52:35;;;;;;;18.00;13.03;;;;;;;9.16;29.08;101907.66;10336447;28;20255;-86
2022/03/23 01:57:39;;;;;;;16.63;11.97;;;;;;;9.48;29.54;101897.66;10368425;28;20232;-87
2022/03/23 02:02:41;;;;;;;17.50;12.27;;;;;;;9.20;29.60;101900.25;10333423;28;20217;-88
2022/03/23 02:07:48;;;;;;;16.13;11.73;;;;;;;9.26;29.60;101895.41;10343694;28;20251;-85
2022/03/23 02:12:50;;;;;;;18.97;13.13;;;;;;;9.32;29.55;101899.81;10332819;28;20231;-86
2022/03/23 02:17:57;;;;;;;20.27;13.93;;;;;;;9.06;29.66;101890.84;10347011;28;20525;-86
2022/03/23 02:22:59;;;;;;;17.80;12.53;;;;;;;8.62;30.42;101902.31;10392771;28;20458;-87
2022/03/23 02:28:02;;;;;;;18.90;13.53;;;;;;;9.11;29.88;101896.44;10334887;28;20237;-86
2022/03/23 02:33:05;;;;;;;18.17;12.67;;;;;;;9.09;30.15;101901.53;10350955;28;20202;-87
2022/03/23 02:38:08;;;;;;;15.33;12.30;;;;;;;9.08;29.98;101899.00;10318474;28;20543;-87
2022/03/23 02:43:10;;;;;;;19.80;13.50;;;;;;;8.56;30.49;101901.50;10336160;28;20209;-86
2022/03/23 02:48:13;;;;;;;18.00;11.60;;;;;;;8.92;30.73;101889.91;10348534;28;20322;-87
2022/03/23 03:04:02;;;;;;;23.40;12.97;;;;;;;8.56;30.66;101892.22;10351829;28;20586;-88
2022/03/23 03:09:04;;;;;;;16.53;12.93;;;;;;;8.72;30.61;101890.97;10375397;28;20263;-87
2022/03/23 03:14:07;;;;;;;19.53;13.17;;;;;;;8.47;31.29;101900.47;10360708;28;20205;-88
2022/03/23 03:19:10;;;;;;;18.13;12.87;;;;;;;8.92;30.30;101906.84;10380321;28;20201;-86
2022/03/23 03:24:12;;;;;;;20.33;12.83;;;;;;;8.92;30.16;101907.69;10364104;28;20213;-86
2022/03/23 03:29:15;;;;;;;18.37;12.93;;;;;;;8.96;30.33;101902.25;10379880;28;20578;-86
2022/03/23 03:34:17;;;;;;;16.50;12.17;;;;;;;8.80;30.02;101915.69;10363730;28;20275;-86
2022/03/23 03:39:19;;;;;;;17.23;11.87;;;;;;;8.89;30.27;101910.25;10338895;28;20561;-86
2022/03/23 03:44:21;;;;;;;18.20;12.10;;;;;;;8.74;30.12;101908.44;10323340;28;20218;-86
2022/03/23 03:49:24;;;;;;;15.57;11.53;;;;;;;8.91;30.25;101910.78;10306556;28;20826;-86
2022/03/23 03:54:26;;;;;;;18.90;12.57;;;;;;;8.25;30.83;101917.03;10325138;28;20710;-85
2022/03/23 03:59:28;;;;;;;16.77;12.20;;;;;;;8.71;30.81;101916.63;10351522;28;20204;-86
2022/03/23 04:04:31;;;;;;;16.73;12.63;;;;;;;8.98;29.94;101916.91;10368592;28;20506;-86
2022/03/23 04:09:33;;;;;;;17.47;11.80;;;;;;;8.67;30.46;101911.53;10389335;28;20585;-86
2022/03/23 04:14:35;;;;;;;17.63;12.47;;;;;;;8.34;31.06;101920.06;10412511;28;20221;-85
2022/03/23 04:19:37;;;;;;;18.73;11.93;;;;;;;8.36;31.05;101915.81;10379452;28;20235;-85
2022/03/23 04:24:40;;;;;;;14.00;11.33;;;;;;;8.56;30.44;101921.25;10396507;28;20205;-88
2022/03/23 04:29:45;;;;;;;17.97;11.93;;;;;;;8.37;31.03;101931.59;10395960;28;20204;-88
2022/03/23 04:34:48;;;;;;;17.23;11.40;;;;;;;8.28;31.22;101927.69;10362846;28;20514;-87
2022/03/23 04:39:50;;;;;;;17.17;11.83;;;;;;;8.47;30.66;101930.66;10365161;28;20267;-89
2022/03/23 04:44:52;;;;;;;14.90;10.93;;;;;;;7.93;31.16;101935.28;10320746;28;20319;-87
2022/03/23 04:49:55;;;;;;;15.70;11.40;;;;;;;8.16;31.06;101932.84;10349860;28;20598;-88
2022/03/23 04:54:57;;;;;;;18.17;11.37;;;;;;;7.67;31.62;101942.16;10354204;28;20221;-87
2022/03/23 05:00:02;;;;;;;18.37;12.83;;;;;;;7.74;31.80;101942.75;10352897;28;20201;-88
2022/03/23 05:05:17;;;;;;;15.83;11.87;;;;;;;7.95;31.21;101940.63;10348399;28;20283;-88
2022/03/23 05:10:19;;;;;;;18.53;12.47;;;;;;;7.29;32.38;101945.72;10359826;28;20217;-91
2022/03/23 05:15:22;;;;;;;16.87;12.73;;;;;;;7.89;31.43;101948.25;10347817;28;20216;-85
2022/03/23 05:20:24;;;;;;;18.77;11.10;;;;;;;7.65;31.57;101943.59;10330354;28;20213;-91
2022/03/23 05:25:27;;;;;;;18.40;12.33;;;;;;;8.10;31.22;101953.78;10365345;28;20275;-89
2022/03/23 05:30:29;;;;;;;18.73;12.47;;;;;;;7.19;32.64;101947.44;10342222;28;20660;-90
2022/03/23 05:35:31;;;;;;;20.20;11.50;;;;;;;6.70;33.47;101950.06;10350989;28;20479;-88
2022/03/23 05:40:34;;;;;;;18.83;12.57;;;;;;;7.03;32.96;101948.63;10405144;28;20208;-87
2022/03/23 05:45:36;;;;;;;17.30;11.63;;;;;;;7.33;32.50;101958.09;10393556;28;20278;-88
2022/03/23 05:50:39;;;;;;;19.40;12.10;;;;;;;7.38;32.00;101952.44;10354566;28;20209;-86
2022/03/23 05:55:41;;;;;;;18.97;11.37;;;;;;;7.58;31.98;101952.34;10368071;28;20252;-86
2022/03/23 06:00:44;;;;;;;17.40;11.07;;;;;;;7.70;31.86;101946.38;10334653;28;20603;-88
2022/03/23 06:05:47;;;;;;;18.43;10.33;;;;;;;7.76;32.39;101960.16;10357876;28;20268;-87
2022/03/23 06:10:50;;;;;;;17.73;11.00;;;;;;;7.83;31.34;101952.25;10347723;28;20205;-87
2022/03/23 06:15:52;;;;;;;16.40;11.10;;;;;;;7.35;32.08;101956.69;10334041;28;20278;-88
2022/03/23 06:20:54;;;;;;;14.47;10.47;;;;;;;8.74;29.94;101955.50;10348229;28;20668;-87
2022/03/23 06:25:57;;;;;;;14.83;9.93;;;;;;;8.59;29.49;101967.75;10366420;28;20276;-88
2022/03/23 06:30:59;;;;;;;17.60;10.77;;;;;;;8.75;30.02;101972.16;10336305;28;20209;-87
2022/03/23 06:36:02;;;;;;;16.43;11.20;;;;;;;8.62;30.08;101970.81;10370776;28;20202;-87
2022/03/23 06:41:04;;;;;;;18.33;11.60;;;;;;;9.13;28.99;101975.97;10337465;28;20214;-87
2022/03/23 06:46:06;;;;;;;15.77;11.07;;;;;;;9.04;29.56;101976.94;10366992;28;20688;-87
2022/03/23 06:51:09;;;;;;;20.30;11.13;;;;;;;9.33;29.27;101972.91;10340137;28;20496;-87
2022/03/23 06:56:11;;;;;;;22.37;13.07;;;;;;;9.01;30.33;101978.38;10337159;28;20800;-87
2022/03/23 07:01:13;;;;;;;21.77;12.47;;;;;;;9.48;29.59;101971.88;10358322;28;20217;-87
2022/03/23 07:06:16;;;;;;;18.77;12.83;;;;;;;9.72;29.74;101969.91;10386527;28;20260;-87
2022/03/23 07:11:18;;;;;;;17.80;11.83;;;;;;;9.94;29.25;101975.00;10369221;28;20247;-87
2022/03/23 07:16:20;;;;;;;20.97;12.50;;;;;;;10.07;29.22;101977.06;10348343;28;20541;-88
2022/03/23 07:21:23;;;;;;;19.73;11.93;;;;;;;10.43;28.19;101977.31;10340919;28;20275;-88
2022/03/23 07:26:26;;;;;;;16.40;12.00;;;;;;;10.65;27.75;101973.88;10364861;28;20633;-88
2022/03/23 07:31:28;;;;;;;18.50;11.03;;;;;;;11.09;27.51;101978.19;10348200;28;20288;-87
2022/03/23 07:36:30;;;;;;;21.03;10.57;;;;;;;11.30;26.84;101989.97;10334283;28;20209;-87
2022/03/23 07:41:33;;;;;;;23.67;12.87;;;;;;;11.38;27.15;101984.44;10348991;28;20598;-87
2022/03/23 07:46:35;;;;;;;33.90;14.50;;;;;;;11.60;27.36;101988.50;10344021;28;20260;-87
2022/03/23 07:51:39;;;;;;;31.27;14.60;;;;;;;11.81;27.17;101981.22;10363935;28;20271;-88
2022/03/23 07:56:41;;;;;;;30.83;15.00;;;;;;;11.97;27.10;101982.56;10368181;28;20225;-88
2022/03/23 08:01:43;;;;;;;27.00;14.27;;;;;;;11.90;27.18;101987.84;10362875;28;20297;-87
2022/03/23 08:06:46;;;;;;;21.23;13.10;;;;;;;12.26;26.55;101989.88;10370596;28;20491;-88
2022/03/23 08:11:48;;;;;;;22.17;12.80;;;;;;;12.52;26.61;101988.94;10346308;28;20205;-88
2022/03/23 08:16:52;;;;;;;23.67;13.60;;;;;;;12.94;26.26;101995.28;10353684;28;20633;-87
2022/03/23 08:21:55;;;;;;;14.70;12.03;;;;;;;12.43;26.17;101990.84;10366180;28;20275;-88
2022/03/23 08:26:59;;;;;;;21.97;13.43;;;;;;;13.11;25.87;101994.53;10372988;28;20262;-87
2022/03/23 08:32:02;;;;;;;28.10;13.93;;;;;;;12.97;25.67;101993.78;10364121;28;20201;-88
2022/03/23 08:37:04;;;;;;;24.90;14.63;;;;;;;11.88;26.79;101997.81;10343399;28;20224;-88
2022/03/23 08:42:06;;;;;;;31.00;15.93;;;;;;;12.70;26.50;101992.72;10361994;28;20274;-87
2022/03/23 08:47:09;;;;;;;24.43;14.20;;;;;;;13.63;25.10;101989.09;10328525;28;20279;-88
2022/03/23 08:52:11;;;;;;;20.90;13.90;;;;;;;13.66;24.81;101992.13;10335904;28;20209;-88
2022/03/23 08:57:13;;;;;;;21.57;14.70;;;;;;;14.28;24.00;101986.19;10358453;28;20629;-89
2022/03/23 09:02:15;;;;;;;18.60;13.50;;;;;;;14.16;23.62;101989.72;10348265;28;20565;-89
2022/03/23 09:07:18;;;;;;;19.30;13.97;;;;;;;14.61;23.27;101983.72;10404739;28;20274;-88
2022/03/23 09:12:20;;;;;;;23.27;14.43;;;;;;;15.50;21.80;101984.84;10379990;28;20208;-89
2022/03/23 09:17:22;;;;;;;21.33;14.33;;;;;;;15.15;22.71;101987.00;10352719;28;20233;-89
2022/03/23 09:22:24;;;;;;;23.42;14.38;;;;;;;13.41;23.72;101996.50;10345765;28;20197;-88
2022/03/23 09:27:27;;;;;;;24.10;14.57;;;;;;;13.64;23.65;101980.25;10360859;28;20229;-88
2022/03/23 09:32:29;;;;;;;25.10;15.63;;;;;;;15.59;21.79;101974.22;10344526;28;20491;-88
2022/03/23 09:37:50;;;;;;;22.17;14.35;;;;;;;15.72;20.93;101979.72;10344735;28;20656;-87
2022/03/23 09:42:53;;;;;;;22.43;13.40;;;;;;;15.31;20.63;101976.69;10345823;28;20613;-88
2022/03/23 09:47:55;;;;;;;25.63;15.20;;;;;;;16.27;20.24;101972.13;10393957;28;20526;-88
2022/03/23 09:52:58;;;;;;;27.03;15.03;;;;;;;15.89;19.88;101975.09;10374537;28;20209;-89
2022/03/23 09:58:02;;;;;;;23.38;14.52;;;;;;;16.54;18.97;101967.88;10343926;28;20221;-88
2022/03/23 10:03:13;;;;;;;31.52;15.00;;;;;;;16.65;19.12;101964.25;10343556;28;20255;-88
2022/03/23 10:08:54;;;;;;;28.75;15.07;;;;;;;16.79;18.56;101964.78;10359518;28;20230;-87
2022/03/23 10:14:33;;;;;;;31.30;15.68;;;;;;;17.24;18.50;101965.94;10362413;28;20271;-87
2022/03/23 10:19:43;;;;;;;27.73;16.48;;;;;;;16.54;18.57;101956.47;10363306;28;20205;-87
2022/03/23 10:24:45;;;;;;;28.17;14.98;;;;;;;15.87;19.07;101960.34;10394352;28;20283;-87
2022/03/23 10:29:52;;;;;;;26.27;16.35;;;;;;;16.25;19.05;101966.75;10361726;28;20233;-88
2022/03/23 10:34:54;;;;;;;26.30;15.82;;;;;;;17.11;18.16;101951.66;10367691;28;20216;-87
2022/03/23 10:39:59;;;;;;;25.42;14.43;;;;;;;17.18;17.12;101947.38;10395949;28;20185;-88
2022/03/23 10:45:09;;;;;;;26.88;14.07;;;;;;;16.87;17.54;101948.72;10362583;28;20349;-87
2022/03/23 10:50:13;;;;;;;21.58;14.05;;;;;;;17.06;16.53;101943.31;10346450;28;20244;-88
2022/03/23 10:55:16;;;;;;;23.70;12.25;;;;;;;16.48;16.42;101940.72;10341424;28;20281;-87
2022/03/23 11:00:30;;;;;;;20.88;11.88;;;;;;;18.55;14.70;101927.28;10325244;28;20221;-88
2022/03/23 11:05:38;;;;;;;19.80;11.88;;;;;;;18.20;15.46;101932.78;10309335;28;20268;-88
2022/03/23 11:16:06;;;;;;;14.07;9.95;;;;;;;16.45;15.41;101924.31;10324837;28;20253;-87
2022/03/23 11:21:08;;;;;;;18.35;11.57;;;;;;;15.51;17.22;101921.78;10325158;28;20452;-87
2022/03/23 11:26:11;;;;;;;16.92;12.45;;;;;;;18.45;15.00;101902.88;10337279;28;20271;-87
2022/03/23 11:31:16;;;;;;;21.13;12.32;;;;;;;18.93;14.01;101897.25;10382764;28;20216;-87
2022/03/23 11:36:19;;;;;;;21.20;12.43;;;;;;;18.28;14.93;101894.59;10419594;28;20212;-87
2022/03/23 11:41:22;;;;;;;19.85;12.43;;;;;;;18.54;14.76;101892.09;10392778;28;20216;-87
2022/03/23 11:46:25;;;;;;;15.68;11.75;;;;;;;18.89;14.56;101891.44;10376646;28;20667;-88
2022/03/23 11:51:49;;;;;;;18.55;12.80;;;;;;;16.77;16.37;101903.47;10390503;28;20512;-86
2022/03/23 11:56:57;;;;;;;21.33;12.00;;;;;;;18.90;15.16;101887.38;10407733;28;20228;-87
2022/03/23 12:01:59;;;;;;;22.92;13.23;;;;;;;17.69;15.39;101889.50;10410330;28;20254;-87
2022/03/23 12:07:04;;;;;;;18.95;13.27;;;;;;;18.71;15.19;101878.63;10371243;28;20506;-87
2022/03/23 12:12:29;;;;;;;20.98;13.48;;;;;;;16.48;16.48;101884.47;10348698;28;20205;-87
2022/03/23 12:17:31;;;;;;;19.70;13.23;;;;;;;17.86;16.86;101870.41;10367471;28;20236;-87
2022/03/23 12:22:33;;;;;;;25.85;14.23;;;;;;;19.74;14.93;101850.56;10383851;28;20237;-87
2022/03/23 12:27:36;;;;;;;18.65;12.73;;;;;;;16.40;16.68;101869.09;10394552;28;20285;-87
2022/03/23 12:32:38;;;;;;;18.40;13.00;;;;;;;18.01;14.91;101861.91;10378790;28;20231;-87
2022/03/23 12:37:42;;;;;;;19.40;14.52;;;;;;;19.35;16.26;101840.19;10364853;28;20260;-87
2022/03/23 12:42:46;;;;;;;19.73;13.73;;;;;;;19.99;15.31;101844.53;10358730;28;20271;-87
2022/03/23 12:47:54;;;;;;;24.88;15.48;;;;;;;18.34;14.63;101841.63;10376187;28;20229;-87
2022/03/23 12:58:26;;;;;;;22.38;14.95;;;;;;;19.02;14.52;101821.38;10379221;28;20225;-87
2022/03/23 13:03:31;;;;;;;22.10;14.75;;;;;;;19.27;16.06;101826.88;10350436;28;20212;-86
2022/03/23 13:08:48;;;;;;;20.30;15.45;;;;;;;20.79;14.16;101812.09;10360756;28;20633;-87
2022/03/23 13:14:01;;;;;;;19.90;14.95;;;;;;;19.08;15.86;101814.13;10347918;28;20569;-86
2022/03/23 13:19:06;;;;;;;18.58;15.10;;;;;;;19.21;14.04;101803.38;10352104;28;20251;-88
2022/03/23 13:24:09;;;;;;;18.77;14.20;;;;;;;20.20;13.91;101787.59;10383627;28;20593;-88
2022/03/23 13:29:12;;;;;;;16.80;13.55;;;;;;;20.67;13.96;101792.19;10345825;28;20591;-88
2022/03/23 13:34:15;;;;;;;17.40;14.18;;;;;;;20.74;13.32;101783.72;10346285;28;20290;-88
2022/03/23 13:39:19;;;;;;;20.13;13.95;;;;;;;19.64;14.02;101779.44;10364767;28;20201;-89
2022/03/23 13:49:44;;;;;;;18.08;13.13;;;;;;;20.73;13.64;101784.91;10359139;28;20232;-87
2022/03/23 13:54:48;;;;;;;16.73;13.65;;;;;;;20.27;13.85;101781.97;10364643;28;20530;-88
2022/03/23 13:59:51;;;;;;;21.23;14.00;;;;;;;19.48;14.46;101775.78;10358773;28;20545;-88
2022/03/23 14:04:54;;;;;;;21.65;15.65;;;;;;;19.93;14.55;101781.72;10331188;28;20209;-89
2022/03/23 14:09:57;;;;;;;20.30;14.60;;;;;;;20.47;13.71;101777.03;10371668;28;20509;-88
2022/03/23 14:14:59;;;;;;;21.75;15.25;;;;;;;20.14;13.67;101758.34;10362586;28;20228;-89
2022/03/23 14:20:04;;;;;;;18.08;14.00;;;;;;;20.74;13.66;101754.97;10376498;28;20205;-90
2022/03/23 14:25:07;;;;;;;24.67;13.52;;;;;;;21.21;13.09;101745.88;10401232;28;20246;-89
2022/03/23 14:30:11;;;;;;;19.70;13.88;;;;;;;20.96;13.72;101748.34;10379415;28;20274;-89
2022/03/23 14:35:19;;;;;;;19.70;13.98;;;;;;;20.14;13.63;101748.91;10378037;28;20236;-88
2022/03/23 14:40:31;;;;;;;18.30;14.05;;;;;;;20.87;13.48;101739.19;10386035;28;20595;-88
2022/03/23 14:45:36;;;;;;;21.40;14.43;;;;;;;19.31;13.98;101747.53;10377008;28;20652;-89
2022/03/23 14:50:41;;;;;;;19.58;15.00;;;;;;;18.76;14.33;101738.81;10352084;28;20287;-91
2022/03/23 14:55:44;;;;;;;19.52;15.27;;;;;;;19.74;13.80;101732.91;10351492;28;20271;-91
2022/03/23 15:00:57;;;;;;;20.27;15.48;;;;;;;19.12;14.32;101734.81;10347720;28;20217;-89
2022/03/23 15:16:43;;;;;;;23.17;14.98;;;;;;;21.56;12.63;101708.13;10379527;28;20233;-88
2022/03/23 15:21:45;;;;;;;16.85;13.98;;;;;;;19.18;14.17;101716.09;10383493;28;20648;-89
2022/03/23 15:26:50;;;;;;;21.90;15.55;;;;;;;19.50;14.00;101722.56;10373741;28;20200;-88
2022/03/23 15:31:54;;;;;;;23.35;15.20;;;;;;;20.49;13.07;101712.22;10381900;28;20221;-89
2022/03/23 15:36:58;;;;;;;24.80;15.30;;;;;;;20.46;13.41;101707.25;10346748;28;20275;-88
2022/03/23 15:42:01;;;;;;;24.48;15.75;;;;;;;19.53;14.09;101704.63;10384274;28;20205;-88
2022/03/23 15:47:03;;;;;;;25.02;16.23;;;;;;;18.28;15.20;101702.78;10369138;28;20252;-87
2022/03/23 15:52:06;;;;;;;25.02;16.02;;;;;;;18.54;15.24;101697.34;10372790;28;20254;-90
2022/03/23 15:57:08;;;;;;;20.02;15.20;;;;;;;19.54;14.80;101706.28;10351277;28;20232;-91
2022/03/23 16:02:11;;;;;;;19.20;14.98;;;;;;;19.35;14.54;101702.53;10367372;28;20256;-90
2022/03/23 16:07:13;;;;;;;22.00;16.00;;;;;;;18.52;14.91;101698.94;10364925;28;20235;-88
2022/03/23 16:12:16;;;;;;;21.13;15.18;;;;;;;19.42;14.71;101709.28;10382751;28;20205;-87
2022/03/23 16:17:19;;;;;;;20.50;15.50;;;;;;;20.22;14.39;101707.66;10375833;28;20271;-89
2022/03/23 16:22:21;;;;;;;22.63;16.13;;;;;;;19.73;14.67;101707.47;10395389;28;20208;-88
2022/03/23 16:27:25;;;;;;;20.80;16.52;;;;;;;20.05;14.09;101702.38;10402900;28;20255;-89
2022/03/23 16:32:29;;;;;;;21.08;16.42;;;;;;;20.23;14.07;101704.38;10386875;28;20258;-88
2022/03/23 16:37:32;;;;;;;27.60;16.98;;;;;;;19.63;14.56;101708.91;10400125;28;20208;-87
2022/03/23 16:42:35;;;;;;;25.15;16.05;;;;;;;19.43;14.21;101719.53;10417587;28;20227;-87
2022/03/23 16:47:42;;;;;;;23.60;17.20;;;;;;;19.57;14.29;101716.19;10383432;28;20606;-85
2022/03/23 16:52:50;;;;;;;23.23;17.20;;;;;;;20.28;14.30;101708.97;10386720;28;20196;-84
2022/03/23 16:57:54;;;;;;;24.08;16.42;;;;;;;19.79;14.20;101718.28;10400969;28;20649;-85
2022/03/23 17:13:38;;;;;;;24.17;16.52;;;;;;;19.70;15.13;101726.25;10372924;28;20248;-83
2022/03/23 17:18:49;;;;;;;25.58;18.00;;;;;;;19.64;14.87;101733.53;10358603;28;20217;-86
2022/03/23 17:23:51;;;;;;;26.50;18.70;;;;;;;18.93;16.15;101731.88;10376548;28;20278;-85
2022/03/23 17:28:53;;;;;;;23.40;16.45;;;;;;;18.72;16.78;101739.91;10376299;28;20229;-83
2022/03/23 17:33:55;;;;;;;22.08;15.85;;;;;;;18.70;16.76;101740.28;10372792;28;20209;-84
2022/03/23 17:38:59;;;;;;;25.00;17.20;;;;;;;18.34;17.12;101744.28;10375008;28;20613;-84
2022/03/23 17:44:04;;;;;;;23.88;16.95;;;;;;;18.24;17.21;101756.25;10388267;28;20259;-85
2022/03/23 17:49:06;;;;;;;29.13;17.00;;;;;;;17.79;16.60;101757.41;10352373;28;20217;-85
2022/03/23 17:54:09;;;;;;;22.38;16.25;;;;;;;18.09;17.83;101751.31;10356754;28;20205;-87
2022/03/23 17:59:12;;;;;;;24.10;16.67;;;;;;;17.91;17.52;101750.81;10369513;28;20197;-88
2022/03/23 18:04:15;;;;;;;22.77;15.52;;;;;;;17.75;18.63;101761.38;10358526;28;20275;-88
2022/03/23 18:09:18;;;;;;;26.23;16.65;;;;;;;17.48;18.74;101768.72;10359212;28;20256;-87
2022/03/23 18:14:20;;;;;;;22.38;16.45;;;;;;;17.45;18.71;101764.53;10367145;28;20233;-86
2022/03/23 18:19:22;;;;;;;27.02;17.25;;;;;;;17.29;18.77;101777.91;10395048;28;20208;-89
2022/03/23 18:24:25;;;;;;;31.13;21.80;;;;;;;17.54;18.72;101778.69;10385990;28;20208;-90
2022/03/23 18:29:28;;;;;;;28.65;19.55;;;;;;;17.32;19.19;101784.94;10359945;28;20549;-87
2022/03/23 18:34:30;;;;;;;25.73;17.15;;;;;;;16.73;19.96;101796.81;10342277;28;20263;-85
2022/03/23 18:39:33;;;;;;;24.58;15.93;;;;;;;16.63;20.06;101805.88;10361053;28;20189;-88
2022/03/23 18:44:35;;;;;;;23.50;17.02;;;;;;;16.73;19.78;101805.41;10364565;28;20205;-85
2022/03/23 18:49:37;;;;;;;31.45;18.67;;;;;;;16.72;20.14;101803.72;10361166;28;20264;-85
2022/03/23 18:54:40;;;;;;;25.15;17.20;;;;;;;16.72;20.33;101815.97;10361948;28;20511;-86
2022/03/23 18:59:42;;;;;;;25.40;16.90;;;;;;;16.52;20.39;101816.09;10377006;28;20275;-85
2022/03/23 19:04:45;;;;;;;26.83;15.43;;;;;;;16.35;21.41;101817.06;10357780;28;20579;-84
2022/03/23 19:09:49;;;;;;;25.75;18.02;;;;;;;16.25;20.56;101821.22;10333307;28;20620;-85
2022/03/23 19:14:52;;;;;;;30.17;18.97;;;;;;;16.39;20.79;101826.63;10374750;28;20221;-84
2022/03/23 19:19:54;;;;;;;29.67;19.27;;;;;;;15.85;21.93;101825.78;10370868;28;20197;-87
2022/03/23 19:24:57;;;;;;;32.93;22.73;;;;;;;15.82;22.06;101827.31;10363386;28;20263;-86
2022/03/23 19:29:59;;;;;;;39.00;23.13;;;;;;;15.58;22.45;101832.84;10352640;28;20283;-87
2022/03/23 19:35:02;;;;;;;37.53;21.87;;;;;;;15.15;22.71;101827.47;10363180;28;20201;-87
2022/03/23 19:40:05;;;;;;;38.20;23.70;;;;;;;15.32;22.71;101827.34;10391391;28;20517;-88
2022/03/23 19:45:09;;;;;;;46.20;26.00;;;;;;;15.34;22.24;101830.69;10367501;28;20197;-84
2022/03/23 19:50:12;;;;;;;34.83;21.57;;;;;;;15.00;22.75;101828.84;10350960;28;20259;-83
2022/03/23 19:55:15;;;;;;;39.93;25.27;;;;;;;14.94;23.13;101830.22;10361124;28;20225;-83
2022/03/23 20:00:18;;;;;;;35.63;23.23;;;;;;;14.40;24.12;101829.06;10373633;28;20601;-86
2022/03/23 20:05:20;;;;;;;35.80;23.37;;;;;;;14.76;23.39;101829.47;10371103;28;20209;-85
2022/03/23 20:10:24;;;;;;;37.77;23.87;;;;;;;14.59;23.92;101829.53;10381800;28;20249;-85
2022/03/23 20:15:27;;;;;;;37.63;24.93;;;;;;;14.30;24.35;101831.06;10361110;28;20264;-86
2022/03/23 20:20:32;;;;;;;36.22;24.67;;;;;;;14.40;23.95;101831.91;10362665;28;20197;-87
2022/03/23 20:25:34;;;;;;;37.10;23.83;;;;;;;14.20;24.62;101837.13;10360216;28;20201;-86
2022/03/23 20:30:37;;;;;;;37.00;23.80;;;;;;;14.29;24.66;101831.41;10348528;28;20232;-87
2022/03/23 20:35:40;;;;;;;36.03;25.47;;;;;;;14.18;24.79;101825.25;10360701;28;20263;-85
2022/03/23 20:40:48;;;;;;;34.30;23.27;;;;;;;13.96;25.09;101833.97;10362223;28;20223;-86
2022/03/23 20:45:52;;;;;;;31.50;23.50;;;;;;;14.04;25.04;101829.44;10394783;28;20246;-85
2022/03/23 20:50:56;;;;;;;37.10;24.20;;;;;;;13.82;25.22;101839.00;10383927;28;21078;-85
2022/03/23 20:55:58;;;;;;;37.95;25.52;;;;;;;13.64;25.57;101838.16;10360307;28;21787;-86
2022/03/23 21:01:01;;;;;;;36.97;25.73;;;;;;;13.40;25.58;101832.91;10356241;28;20205;-86
2022/03/23 21:06:07;;;;;;;39.60;25.43;;;;;;;13.39;26.08;101828.41;10379662;28;20200;-84
2022/03/23 21:11:09;;;;;;;38.40;24.60;;;;;;;13.06;26.05;101838.53;10399271;28;20216;-86
2022/03/23 21:16:13;;;;;;;42.30;25.87;;;;;;;12.93;26.10;101833.78;10382497;28;20344;-85
2022/03/23 21:21:15;;;;;;;36.83;24.27;;;;;;;13.12;25.92;101837.19;10359970;28;20621;-86
2022/03/23 21:26:18;;;;;;;39.40;25.43;;;;;;;13.22;25.94;101842.56;10360244;28;20320;-85
2022/03/23 21:31:24;;;;;;;35.70;25.73;;;;;;;13.23;26.41;101850.75;10360426;28;20213;-85
2022/03/23 21:36:26;;;;;;;34.83;25.03;;;;;;;13.11;26.61;101841.19;10360218;28;20578;-86
2022/03/23 21:41:29;;;;;;;41.07;25.47;;;;;;;12.75;27.33;101849.88;10359071;28;20202;-85
2022/03/23 21:46:36;;;;;;;37.37;26.00;;;;;;;12.95;27.02;101845.66;10359138;28;20208;-85
2022/03/23 21:51:38;;;;;;;40.33;25.50;;;;;;;12.94;27.02;101850.50;10344511;28;20275;-86
2022/03/23 21:56:40;;;;;;;38.07;24.23;;;;;;;12.72;26.90;101837.16;10345604;28;20637;-85
2022/03/23 22:01:43;;;;;;;32.73;23.27;;;;;;;12.74;27.21;101829.16;10375531;28;20201;-84
2022/03/23 22:06:45;;;;;;;35.10;22.93;;;;;;;12.68;27.16;101833.34;10375716;28;20225;-85
2022/03/23 22:11:47;;;;;;;34.07;23.30;;;;;;;12.00;28.18;101839.38;10342991;28;20252;-85
2022/03/23 22:16:50;;;;;;;34.47;23.83;;;;;;;12.47;27.52;101837.88;10365140;28;20226;-86
2022/03/23 22:21:52;;;;;;;33.93;22.27;;;;;;;12.45;27.57;101835.38;10351194;28;20194;-87
2022/03/23 22:26:54;;;;;;;35.30;23.40;;;;;;;12.29;27.95;101839.78;10350510;28;20200;-85
2022/03/23 22:31:56;;;;;;;34.33;23.07;;;;;;;12.29;27.76;101827.63;10352164;28;20233;-88
2022/03/23 22:36:59;;;;;;;32.33;22.70;;;;;;;12.42;27.39;101833.19;10349859;28;20598;-87
2022/03/23 22:42:02;;;;;;;36.47;23.83;;;;;;;12.23;27.56;101838.25;10383043;28;20197;-85
2022/03/23 22:47:04;;;;;;;31.70;22.53;;;;;;;12.05;28.03;101840.06;10365268;28;20210;-87
2022/03/23 22:52:12;;;;;;;34.57;22.90;;;;;;;11.83;28.55;101840.91;10365988;28;20229;-87
2022/03/23 22:57:14;;;;;;;33.17;22.87;;;;;;;12.01;27.89;101836.22;10349625;28;20229;-88
2022/03/23 23:02:16;;;;;;;28.73;21.83;;;;;;;11.92;28.55;101826.81;10365212;28;20550;-87
2022/03/23 23:07:19;;;;;;;34.33;22.73;;;;;;;11.28;29.17;101834.53;10360853;28;20209;-87
2022/03/23 23:12:21;;;;;;;32.37;21.07;;;;;;;11.74;28.65;101825.00;10331124;28;20233;-86
2022/03/23 23:17:24;;;;;;;33.27;22.20;;;;;;;11.77;28.57;101825.22;10332072;28;20291;-88
2022/03/23 23:22:27;;;;;;;33.30;20.73;;;;;;;11.61;28.80;101821.06;10363650;28;20205;-88
2022/03/23 23:27:33;;;;;;;35.37;22.73;;;;;;;11.33;29.16;101825.97;10361530;28;21755;-88
2022/03/23 23:32:35;;;;;;;36.73;24.77;;;;;;;11.58;28.49;101820.84;10348671;28;20221;-88
2022/03/23 23:37:39;;;;;;;36.10;26.07;;;;;;;11.20;29.19;101821.13;10380520;28;20259;-87